NCAR-RAP Real-Time Weather Data

Output produced by METARs form (19 October 2020  15:44 UTC)
found at http://weather.rap.ucar.edu/surface/
 
KAPN 191454Z 20004KT CLR 05/02 A3026 RMK AO2 SLP253 I3000 T00500017 50003 $
KAPN 191354Z 22003KT CLR 01/01 A3027 RMK AO2 SLP260 T00110006 $
KAPN 191254Z 26003KT 10SM CLR M01/M01 A3027 RMK AO2 SLP259 I1000 T10061011
KAPN 191154Z 00000KT 10SM CLR M02/M03 A3025 RMK AO2 SLP253 70027 I6001 T10221028 10000 21028 53002
KAPN 191105Z 00000KT 3SM BR CLR M02/M03 A3025 RMK AO2 VIS 1/2 RY 19 T10221028 $
KAPN 191058Z 00000KT 1 3/4SM BR CLR M02/M03 A3025 RMK AO2 VIS 1/2 RY 19 T10221028 $
KAPN 191054Z 00000KT 4SM BR CLR M02/M03 A3025 RMK AO2 VIS 1/2 RY 19 SLP252 I1001 T10221028 /
KAPN 191045Z 00000KT 3SM BR CLR M02/M02 A3025 RMK AO2 VIS 1/4 RY 19 I1000 T10171022 $
KAPN 191020Z 00000KT 1 1/2SM BR CLR M02/M03 A3024 RMK AO2 VIS 3/4 RY 19 I1000 T10221028 $
KAPN 191014Z 00000KT 4SM BR CLR M02/M03 A3024 RMK AO2 VIS 3/4 RY 19 T10221028 $
KAPN 190817Z 00000KT 4SM BR CLR M02/M02 A3024 RMK AO2 T10171022 $
KAPN 190810Z 00000KT 2SM BR CLR M02/M02 A3024 RMK AO2 T10171017 $
KAPN 190804Z 00000KT 3/4SM BR CLR M01/M02 A3024 RMK AO2 T10111017 $
KAPN 190754Z 00000KT 1 3/4SM BR CLR M02/M02 A3024 RMK AO2 SLP248 I1000 T10171017 $
KAPN 190751Z 00000KT 6SM BR CLR M01/M02 A3023 RMK AO2 I1000 $
KAPN 190738Z 00000KT 2 1/2SM BR CLR M02/M02 A3024 RMK AO2 VIS 1 1/2V4 I1000 T10171017 $
KAPN 190654Z 00000KT 10SM CLR 00/M01 A3024 RMK AO2 SLP249 I1000 T00001006 $
KAPN 190554Z 21004KT 10SM CLR M01/M02 A3022 RMK AO2 SLP242 I1001 I6001 T10111017 10044 21017 51011 $